Time;durP1;ratioP1;P1;durP2;ratioP2;P2;SDS_P1;SDS_P2;PMS_P1;PMS_P2;Temp;Humidity;BMP_temperature;BMP_pressure;BME280_temperature;BME280_humidity;BME280_pressure;Samples;Min_cycle;Max_cycle;Signal;HPM_P1;HPM_P2
2021/09/17 00:00:55;;;;;;;26.58;21.45;;;;;;;;;;4776205;30;20035;-84
2021/09/17 00:03:22;;;;;;;26.55;20.38;;;;;;;;;;4759321;30;20078;-82
2021/09/17 00:05:47;;;;;;;27.40;21.33;;;;;;;;;;4759516;30;20538;-85
2021/09/17 00:08:13;;;;;;;27.88;21.10;;;;;;;;;;4790961;30;20058;-84
2021/09/17 00:10:39;;;;;;;26.17;20.63;;;;;;;;;;4760014;30;20050;-82
2021/09/17 00:13:05;;;;;;;24.80;20.38;;;;;;;;;;4778192;30;20039;-85
2021/09/17 00:15:30;;;;;;;27.85;22.60;;;;;;;;;;4784421;29;20121;-83
2021/09/17 00:17:56;;;;;;;28.40;21.40;;;;;;;;;;4771431;30;20147;-84
2021/09/17 00:20:22;;;;;;;25.98;21.17;;;;;;;;;;4743317;30;20028;-84
2021/09/17 00:22:48;;;;;;;28.42;22.10;;;;;;;;;;4787235;30;20042;-82
2021/09/17 00:25:14;;;;;;;26.75;20.85;;;;;;;;;;4774693;30;20035;-84
2021/09/17 00:27:40;;;;;;;28.20;21.15;;;;;;;;;;4794633;29;20122;-82
2021/09/17 00:30:06;;;;;;;30.08;22.42;;;;;;;;;;4776010;30;20126;-84
2021/09/17 00:32:32;;;;;;;28.05;21.30;;;;;;;;;;4779871;29;20130;-82
2021/09/17 00:34:58;;;;;;;27.88;21.45;;;;;;;;;;4771244;30;20111;-82
2021/09/17 00:37:23;;;;;;;28.05;21.73;;;;;;;;;;4761401;30;20047;-82
2021/09/17 00:39:49;;;;;;;27.50;21.60;;;;;;;;;;4791740;29;20398;-85
2021/09/17 00:42:14;;;;;;;27.00;20.95;;;;;;;;;;4758791;30;20028;-84
2021/09/17 00:44:40;;;;;;;26.23;20.98;;;;;;;;;;4759099;30;20039;-85
2021/09/17 00:47:06;;;;;;;28.48;22.95;;;;;;;;;;4773624;30;20499;-82
2021/09/17 00:49:31;;;;;;;30.35;22.80;;;;;;;;;;4788388;30;20076;-83
2021/09/17 00:51:57;;;;;;;28.08;22.35;;;;;;;;;;4759880;30;20050;-84
2021/09/17 00:54:25;;;;;;;29.15;21.83;;;;;;;;;;4790501;30;20050;-85
2021/09/17 00:56:51;;;;;;;30.23;21.98;;;;;;;;;;4770229;30;20808;-84
2021/09/17 00:59:17;;;;;;;31.33;22.77;;;;;;;;;;4774577;29;20053;-84
2021/09/17 01:01:43;;;;;;;29.13;22.13;;;;;;;;;;4746098;30;20389;-84
2021/09/17 01:04:09;;;;;;;31.88;24.25;;;;;;;;;;4777863;29;20050;-82
2021/09/17 01:06:36;;;;;;;30.83;22.80;;;;;;;;;;4755008;30;20072;-83
2021/09/17 01:09:04;;;;;;;32.03;23.38;;;;;;;;;;4771001;30;20036;-82
2021/09/17 01:11:30;;;;;;;29.98;23.20;;;;;;;;;;4786652;30;20035;-85
2021/09/17 01:13:56;;;;;;;32.80;23.35;;;;;;;;;;4789427;29;20126;-81
2021/09/17 01:16:21;;;;;;;29.50;23.98;;;;;;;;;;4773636;29;20118;-85
2021/09/17 01:18:50;;;;;;;29.27;21.83;;;;;;;;;;4786074;29;20480;-82
2021/09/17 01:21:16;;;;;;;33.35;22.10;;;;;;;;;;4794595;29;20129;-83
2021/09/17 01:23:41;;;;;;;30.85;22.73;;;;;;;;;;4756072;30;20081;-83
2021/09/17 01:26:07;;;;;;;31.20;21.67;;;;;;;;;;4786903;29;20461;-82
2021/09/17 01:28:33;;;;;;;30.65;21.77;;;;;;;;;;4776272;30;20142;-84
2021/09/17 01:30:59;;;;;;;34.33;22.73;;;;;;;;;;4792363;29;20096;-85
2021/09/17 01:33:25;;;;;;;28.73;21.75;;;;;;;;;;4773637;30;20039;-82
2021/09/17 01:35:59;;;;;;;31.83;22.70;;;;;;;;;;4776029;29;20072;-84
2021/09/17 01:38:26;;;;;;;27.27;21.00;;;;;;;;;;4770644;30;20122;-82
2021/09/17 01:40:52;;;;;;;27.27;21.48;;;;;;;;;;4779323;29;20036;-81
2021/09/17 01:43:18;;;;;;;27.42;20.67;;;;;;;;;;4769689;30;20703;-84
2021/09/17 01:45:44;;;;;;;30.75;21.17;;;;;;;;;;4784450;29;20043;-83
2021/09/17 01:48:09;;;;;;;28.17;20.45;;;;;;;;;;4770667;30;20467;-85
2021/09/17 01:50:35;;;;;;;27.90;20.88;;;;;;;;;;4755823;29;20031;-82
2021/09/17 01:53:00;;;;;;;28.40;21.15;;;;;;;;;;4772249;29;20134;-84
2021/09/17 01:55:26;;;;;;;28.10;21.17;;;;;;;;;;4770676;30;20131;-84
2021/09/17 01:57:52;;;;;;;29.80;22.52;;;;;;;;;;4756722;30;20043;-84
2021/09/17 02:00:18;;;;;;;30.63;22.27;;;;;;;;;;4787120;29;20031;-84
2021/09/17 02:02:44;;;;;;;30.25;21.02;;;;;;;;;;4783274;29;20038;-82
2021/09/17 02:05:10;;;;;;;29.25;20.90;;;;;;;;;;4772088;30;20054;-84
2021/09/17 02:07:35;;;;;;;28.15;20.83;;;;;;;;;;4758725;29;20174;-84
2021/09/17 02:10:01;;;;;;;26.67;20.20;;;;;;;;;;4757009;30;20395;-82
2021/09/17 02:12:27;;;;;;;29.25;21.35;;;;;;;;;;4783708;30;20047;-84
2021/09/17 02:14:53;;;;;;;28.77;21.17;;;;;;;;;;4765771;30;20047;-83
2021/09/17 02:17:18;;;;;;;27.88;21.10;;;;;;;;;;4769691;29;20110;-85
2021/09/17 02:19:44;;;;;;;29.30;21.02;;;;;;;;;;4773279;29;20063;-82
2021/09/17 02:22:10;;;;;;;27.48;19.35;;;;;;;;;;4791679;29;20053;-84
2021/09/17 02:24:35;;;;;;;28.17;21.75;;;;;;;;;;4765881;29;20039;-83
2021/09/17 02:27:01;;;;;;;27.65;21.63;;;;;;;;;;4787821;29;20069;-84
2021/09/17 02:29:26;;;;;;;28.67;20.92;;;;;;;;;;4759546;29;20040;-82
2021/09/17 02:31:52;;;;;;;27.10;20.45;;;;;;;;;;4771998;30;20046;-81
2021/09/17 02:34:17;;;;;;;30.20;20.95;;;;;;;;;;4757131;30;20038;-83
2021/09/17 02:36:43;;;;;;;27.08;20.73;;;;;;;;;;4787530;29;20499;-84
2021/09/17 02:39:11;;;;;;;26.95;20.73;;;;;;;;;;4757531;30;20047;-84
2021/09/17 02:41:38;;;;;;;27.98;20.25;;;;;;;;;;4790465;29;20043;-84
2021/09/17 02:44:04;;;;;;;27.75;20.15;;;;;;;;;;4789278;29;20023;-84
2021/09/17 02:46:29;;;;;;;26.42;19.98;;;;;;;;;;4756967;29;20043;-81
2021/09/17 02:48:55;;;;;;;30.95;19.95;;;;;;;;;;4756289;30;20667;-84
2021/09/17 02:51:21;;;;;;;27.73;20.10;;;;;;;;;;4775166;30;20039;-82
2021/09/17 02:53:47;;;;;;;27.13;19.85;;;;;;;;;;4750682;30;20047;-82
2021/09/17 02:56:12;;;;;;;26.10;19.50;;;;;;;;;;4761653;30;20082;-82
2021/09/17 02:58:38;;;;;;;26.95;19.77;;;;;;;;;;4772978;30;20061;-82
2021/09/17 03:01:04;;;;;;;27.35;20.38;;;;;;;;;;4757290;30;20056;-84
2021/09/17 03:03:30;;;;;;;27.02;19.20;;;;;;;;;;4786966;29;20031;-84
2021/09/17 03:05:55;;;;;;;29.02;21.13;;;;;;;;;;4768534;30;20404;-84
2021/09/17 03:08:21;;;;;;;29.75;21.08;;;;;;;;;;4758262;30;20035;-84
2021/09/17 03:10:47;;;;;;;27.63;20.55;;;;;;;;;;4788487;29;20035;-84
2021/09/17 03:13:12;;;;;;;28.98;20.65;;;;;;;;;;4773560;29;20043;-84
2021/09/17 03:15:38;;;;;;;29.05;21.80;;;;;;;;;;4788144;29;20073;-82
2021/09/17 03:18:04;;;;;;;25.45;19.40;;;;;;;;;;4763522;30;20566;-84
2021/09/17 03:20:29;;;;;;;27.38;20.05;;;;;;;;;;4784172;29;20088;-82
2021/09/17 03:22:55;;;;;;;26.05;20.10;;;;;;;;;;4769854;30;20040;-82
2021/09/17 03:25:21;;;;;;;25.80;20.40;;;;;;;;;;4772018;29;20034;-84
2021/09/17 03:27:47;;;;;;;26.83;19.67;;;;;;;;;;4786018;30;20039;-84
2021/09/17 03:30:13;;;;;;;29.88;20.83;;;;;;;;;;4782170;30;20031;-82
2021/09/17 03:32:39;;;;;;;27.70;19.95;;;;;;;;;;4771404;30;20043;-84
2021/09/17 03:35:06;;;;;;;27.30;20.33;;;;;;;;;;4793251;29;20043;-84
2021/09/17 03:37:31;;;;;;;28.27;20.98;;;;;;;;;;4755731;30;20039;-84
2021/09/17 03:39:57;;;;;;;29.30;21.30;;;;;;;;;;4774984;30;20126;-82
2021/09/17 03:42:22;;;;;;;28.63;19.75;;;;;;;;;;4787298;29;20040;-82
2021/09/17 03:44:48;;;;;;;25.38;19.75;;;;;;;;;;4786462;30;20049;-81
2021/09/17 03:47:14;;;;;;;28.55;20.45;;;;;;;;;;4741287;30;20039;-84
2021/09/17 03:49:39;;;;;;;28.50;19.70;;;;;;;;;;4752830;30;20503;-82
2021/09/17 03:52:05;;;;;;;27.70;20.45;;;;;;;;;;4786095;29;20407;-84
2021/09/17 03:54:31;;;;;;;25.55;19.15;;;;;;;;;;4785968;30;20123;-83
2021/09/17 03:56:59;;;;;;;25.80;19.35;;;;;;;;;;4770519;30;20896;-84
2021/09/17 03:59:24;;;;;;;26.55;19.70;;;;;;;;;;4782923;29;20034;-83
2021/09/17 04:01:50;;;;;;;26.00;19.23;;;;;;;;;;4784651;29;20094;-82
2021/09/17 04:04:16;;;;;;;26.58;20.00;;;;;;;;;;4786580;29;20068;-84
2021/09/17 04:06:45;;;;;;;28.40;19.45;;;;;;;;;;4784391;30;20118;-84
2021/09/17 04:09:11;;;;;;;26.90;20.00;;;;;;;;;;4771469;29;20782;-82
2021/09/17 04:11:36;;;;;;;28.35;20.55;;;;;;;;;;4771669;30;20049;-84
2021/09/17 04:14:02;;;;;;;28.17;20.40;;;;;;;;;;4756556;30;20038;-83
2021/09/17 04:16:28;;;;;;;28.90;19.10;;;;;;;;;;4757091;29;20403;-82
2021/09/17 04:18:54;;;;;;;24.40;19.00;;;;;;;;;;4758258;30;20126;-84
2021/09/17 04:21:19;;;;;;;26.02;19.00;;;;;;;;;;4775850;30;20039;-82
2021/09/17 04:23:45;;;;;;;25.13;19.00;;;;;;;;;;4778188;30;20460;-82
2021/09/17 04:26:10;;;;;;;25.35;18.83;;;;;;;;;;4779059;29;20035;-83
2021/09/17 04:28:36;;;;;;;23.83;18.25;;;;;;;;;;4774052;29;20142;-82
2021/09/17 04:31:02;;;;;;;24.67;18.52;;;;;;;;;;4791798;29;20039;-82
2021/09/17 04:33:27;;;;;;;25.67;19.40;;;;;;;;;;4780464;30;20047;-82
2021/09/17 04:35:53;;;;;;;24.27;19.10;;;;;;;;;;4779605;29;20041;-84
2021/09/17 04:38:20;;;;;;;25.27;18.73;;;;;;;;;;4770755;30;20042;-84
2021/09/17 04:40:45;;;;;;;23.10;18.38;;;;;;;;;;4757885;29;20125;-82
2021/09/17 04:43:11;;;;;;;23.23;17.98;;;;;;;;;;4761465;30;20139;-82
2021/09/17 04:45:37;;;;;;;25.65;20.17;;;;;;;;;;4791580;29;20043;-82
2021/09/17 04:48:10;;;;;;;26.83;18.75;;;;;;;;;;4763003;30;20491;-82
2021/09/17 04:50:35;;;;;;;;;;;;;;;;;;4790087;29;20027;-84
2021/09/17 04:53:01;;;;;;;25.13;18.45;;;;;;;;;;4788327;29;19936;-82
2021/09/17 04:55:26;;;;;;;24.98;19.38;;;;;;;;;;4774970;29;20480;-82
2021/09/17 04:57:52;;;;;;;26.55;19.17;;;;;;;;;;4745493;30;21264;-84
2021/09/17 05:00:17;;;;;;;24.15;18.02;;;;;;;;;;4759635;30;20407;-82
2021/09/17 05:02:43;;;;;;;24.08;18.17;;;;;;;;;;4788537;30;20574;-84
2021/09/17 05:05:09;;;;;;;22.58;18.13;;;;;;;;;;4773065;29;20043;-84
2021/09/17 05:07:34;;;;;;;24.38;18.23;;;;;;;;;;4774791;30;20035;-82
2021/09/17 05:10:00;;;;;;;24.80;18.27;;;;;;;;;;4773808;30;20556;-84
2021/09/17 05:12:26;;;;;;;24.15;18.05;;;;;;;;;;4759298;29;20038;-82
2021/09/17 05:14:52;;;;;;;26.98;18.92;;;;;;;;;;4777830;30;20035;-84
2021/09/17 05:17:17;;;;;;;23.85;18.95;;;;;;;;;;4760565;30;20551;-81
2021/09/17 05:19:43;;;;;;;24.95;18.38;;;;;;;;;;4754503;30;20062;-82
2021/09/17 05:22:08;;;;;;;24.00;18.30;;;;;;;;;;4773737;29;20272;-82
2021/09/17 05:24:34;;;;;;;25.38;19.17;;;;;;;;;;4773068;30;20074;-84
2021/09/17 05:26:59;;;;;;;29.45;19.13;;;;;;;;;;4770956;30;20141;-84
2021/09/17 05:29:25;;;;;;;24.00;18.90;;;;;;;;;;4779236;29;20039;-84
2021/09/17 05:31:50;;;;;;;24.38;18.83;;;;;;;;;;4765167;30;20158;-82
2021/09/17 05:34:16;;;;;;;26.73;19.63;;;;;;;;;;4791487;29;20052;-83
2021/09/17 05:36:43;;;;;;;24.77;18.65;;;;;;;;;;4770759;30;20042;-82
2021/09/17 05:39:09;;;;;;;24.77;19.45;;;;;;;;;;4771418;29;20031;-81
2021/09/17 05:41:35;;;;;;;24.92;19.15;;;;;;;;;;4778521;29;20034;-84
2021/09/17 05:44:00;;;;;;;24.10;18.42;;;;;;;;;;4774879;29;20043;-81
2021/09/17 05:46:26;;;;;;;24.73;18.95;;;;;;;;;;4776513;29;20035;-83
2021/09/17 05:48:51;;;;;;;24.63;18.55;;;;;;;;;;4775691;29;20116;-82
2021/09/17 05:51:18;;;;;;;25.10;18.90;;;;;;;;;;4792644;29;20039;-84
2021/09/17 05:53:44;;;;;;;26.13;19.02;;;;;;;;;;4784525;29;20614;-84
2021/09/17 05:56:09;;;;;;;25.27;18.95;;;;;;;;;;4785605;29;20059;-82
2021/09/17 05:58:37;;;;;;;29.30;18.88;;;;;;;;;;4756330;30;20039;-82
2021/09/17 06:01:02;;;;;;;24.60;18.85;;;;;;;;;;4742410;30;20436;-84
2021/09/17 06:03:28;;;;;;;25.38;18.30;;;;;;;;;;4768397;30;20039;-82
2021/09/17 06:05:54;;;;;;;26.35;19.48;;;;;;;;;;4760597;30;20047;-82
2021/09/17 06:08:19;;;;;;;24.23;18.25;;;;;;;;;;4758257;30;20085;-82
2021/09/17 06:10:45;;;;;;;27.58;19.90;;;;;;;;;;4770658;30;20043;-82
2021/09/17 06:13:13;;;;;;;24.80;18.65;;;;;;;;;;4771049;30;20027;-84
2021/09/17 06:15:38;;;;;;;25.58;18.20;;;;;;;;;;4771607;30;20078;-82
2021/09/17 06:18:04;;;;;;;24.67;19.13;;;;;;;;;;4793424;29;20038;-82
2021/09/17 06:20:29;;;;;;;27.60;19.13;;;;;;;;;;4787222;30;20044;-82
2021/09/17 06:22:55;;;;;;;27.35;18.23;;;;;;;;;;4774717;30;20404;-83
2021/09/17 06:25:22;;;;;;;25.80;18.27;;;;;;;;;;4771871;30;20039;-82
2021/09/17 06:27:49;;;;;;;25.40;17.55;;;;;;;;;;4782950;29;20484;-82
2021/09/17 06:30:16;;;;;;;26.27;18.05;;;;;;;;;;4772722;30;20035;-81
2021/09/17 06:32:42;;;;;;;25.55;18.52;;;;;;;;;;4784354;30;20065;-84
2021/09/17 06:35:08;;;;;;;24.67;18.48;;;;;;;;;;4754864;30;20507;-84
2021/09/17 06:37:34;;;;;;;24.42;17.60;;;;;;;;;;4773238;30;20036;-83
2021/09/17 06:40:00;;;;;;;23.63;17.75;;;;;;;;;;4772016;30;20031;-84
2021/09/17 06:42:25;;;;;;;25.70;17.88;;;;;;;;;;4771786;29;20103;-82
2021/09/17 06:44:51;;;;;;;24.73;17.15;;;;;;;;;;4796427;29;20056;-82
2021/09/17 06:47:17;;;;;;;28.83;17.05;;;;;;;;;;4764472;30;20039;-81
2021/09/17 06:49:43;;;;;;;22.73;17.45;;;;;;;;;;4759697;30;20041;-82
2021/09/17 06:52:08;;;;;;;23.17;15.52;;;;;;;;;;4757709;30;20120;-81
2021/09/17 06:54:34;;;;;;;20.77;16.02;;;;;;;;;;4767815;30;20059;-84
2021/09/17 06:56:59;;;;;;;22.23;15.93;;;;;;;;;;4772710;30;20063;-82
2021/09/17 06:59:25;;;;;;;24.58;17.08;;;;;;;;;;4789235;29;20063;-84
2021/09/17 07:01:50;;;;;;;21.75;16.10;;;;;;;;;;4776634;30;20027;-84
2021/09/17 07:04:16;;;;;;;22.67;15.13;;;;;;;;;;4773300;30;20039;-84
2021/09/17 07:06:41;;;;;;;20.02;14.70;;;;;;;;;;4773691;30;20042;-84
2021/09/17 07:09:07;;;;;;;19.60;14.50;;;;;;;;;;4787476;30;20092;-82
2021/09/17 07:11:33;;;;;;;17.50;12.95;;;;;;;;;;4771433;30;20034;-82
2021/09/17 07:13:58;;;;;;;18.88;14.15;;;;;;;;;;4761659;30;20111;-82
2021/09/17 07:16:24;;;;;;;18.80;14.50;;;;;;;;;;4763975;30;20035;-81
2021/09/17 07:18:49;;;;;;;25.70;15.38;;;;;;;;;;4761194;30;20032;-84
2021/09/17 07:21:15;;;;;;;21.88;16.20;;;;;;;;;;4748278;30;20059;-82
2021/09/17 07:23:41;;;;;;;21.40;15.73;;;;;;;;;;4772093;30;20054;-82
2021/09/17 07:26:06;;;;;;;19.92;15.50;;;;;;;;;;4755516;29;20059;-84
2021/09/17 07:28:33;;;;;;;15.68;12.20;;;;;;;;;;4765184;30;20039;-84
2021/09/17 07:31:00;;;;;;;19.88;15.70;;;;;;;;;;4775804;29;20047;-82
2021/09/17 07:33:27;;;;;;;22.23;15.27;;;;;;;;;;4792881;29;20027;-84
2021/09/17 07:35:53;;;;;;;24.75;17.27;;;;;;;;;;4772818;30;20361;-84
2021/09/17 07:38:18;;;;;;;24.58;17.52;;;;;;;;;;4773186;30;20089;-82
2021/09/17 07:40:44;;;;;;;22.45;17.00;;;;;;;;;;4771853;30;20404;-84
2021/09/17 07:43:09;;;;;;;24.60;18.35;;;;;;;;;;4759644;30;20126;-84
2021/09/17 07:45:35;;;;;;;23.70;17.73;;;;;;;;;;4758600;29;20047;-82
2021/09/17 07:48:02;;;;;;;24.02;16.90;;;;;;;;;;4780960;30;20122;-81
2021/09/17 07:50:28;;;;;;;24.30;18.85;;;;;;;;;;4754979;30;20032;-84
2021/09/17 07:52:55;;;;;;;27.30;20.77;;;;;;;;;;4775066;29;20423;-84
2021/09/17 07:55:20;;;;;;;27.05;21.05;;;;;;;;;;4760252;30;20035;-84
2021/09/17 07:57:46;;;;;;;24.50;17.10;;;;;;;;;;4770921;30;20063;-84
2021/09/17 08:00:13;;;;;;;27.23;20.65;;;;;;;;;;4792403;29;20110;-84
2021/09/17 08:02:41;;;;;;;23.73;18.13;;;;;;;;;;4790127;30;20031;-84
2021/09/17 08:05:07;;;;;;;26.45;20.73;;;;;;;;;;4771631;30;20039;-82
2021/09/17 08:07:33;;;;;;;20.45;16.48;;;;;;;;;;4775672;30;20074;-82
2021/09/17 08:09:58;;;;;;;31.65;22.70;;;;;;;;;;4775302;30;20615;-85
2021/09/17 08:12:24;;;;;;;30.27;21.25;;;;;;;;;;4774876;29;20154;-84
2021/09/17 08:14:50;;;;;;;27.55;21.08;;;;;;;;;;4776951;30;20047;-82
2021/09/17 08:17:15;;;;;;;31.77;23.02;;;;;;;;;;4789358;30;20039;-82
2021/09/17 08:19:41;;;;;;;30.23;23.33;;;;;;;;;;4740813;30;20031;-82
2021/09/17 08:22:07;;;;;;;33.22;23.38;;;;;;;;;;4791364;29;20054;-82
2021/09/17 08:24:33;;;;;;;34.03;25.02;;;;;;;;;;4762134;30;20046;-84
2021/09/17 08:27:00;;;;;;;32.42;23.67;;;;;;;;;;4796123;29;20488;-84
2021/09/17 08:29:26;;;;;;;31.92;23.50;;;;;;;;;;4746438;30;20092;-82
2021/09/17 08:31:54;;;;;;;31.67;24.50;;;;;;;;;;4772685;30;20481;-82
2021/09/17 08:34:21;;;;;;;30.80;22.90;;;;;;;;;;4789222;30;20035;-84
2021/09/17 08:36:46;;;;;;;30.30;24.35;;;;;;;;;;4772801;30;20039;-83
2021/09/17 08:39:14;;;;;;;30.02;24.42;;;;;;;;;;4774366;30;20031;-82
2021/09/17 08:41:43;;;;;;;33.33;24.55;;;;;;;;;;4794086;29;20038;-83
2021/09/17 08:44:08;;;;;;;32.92;24.98;;;;;;;;;;4797000;29;20040;-84
2021/09/17 08:46:37;;;;;;;32.08;25.10;;;;;;;;;;4793846;29;20039;-84
2021/09/17 08:49:03;;;;;;;34.78;24.52;;;;;;;;;;4793160;29;20035;-82
2021/09/17 08:51:29;;;;;;;33.33;24.80;;;;;;;;;;4762137;30;22526;-84
2021/09/17 08:53:55;;;;;;;33.08;25.45;;;;;;;;;;4790595;30;20039;-81
2021/09/17 08:56:20;;;;;;;31.83;24.80;;;;;;;;;;4773402;30;20074;-81
2021/09/17 08:58:47;;;;;;;30.80;24.17;;;;;;;;;;4762660;30;20096;-84
2021/09/17 09:01:25;;;;;;;33.78;25.90;;;;;;;;;;4781070;29;20031;-84
2021/09/17 09:03:52;;;;;;;33.25;25.08;;;;;;;;;;4784819;29;20043;-83
2021/09/17 09:06:19;;;;;;;31.38;25.50;;;;;;;;;;4772480;29;20582;-81
2021/09/17 09:08:45;;;;;;;34.15;24.90;;;;;;;;;;4756596;29;20032;-81
2021/09/17 09:11:18;;;;;;;32.97;24.90;;;;;;;;;;4794168;29;20042;-81
2021/09/17 09:14:05;;;;;;;34.60;26.10;;;;;;;;;;4788508;29;20104;-84
2021/09/17 09:16:31;;;;;;;33.22;24.25;;;;;;;;;;4788464;30;20077;-82
2021/09/17 09:18:57;;;;;;;35.90;25.42;;;;;;;;;;4771552;30;20043;-82
2021/09/17 09:21:32;;;;;;;36.00;26.23;;;;;;;;;;4772570;30;20066;-81
2021/09/17 09:24:26;;;;;;;34.55;25.42;;;;;;;;;;4775933;30;20036;-81
2021/09/17 09:27:10;;;;;;;33.38;26.15;;;;;;;;;;4776253;30;20051;-85
2021/09/17 09:29:37;;;;;;;36.33;27.15;;;;;;;;;;4792796;29;20039;-84
2021/09/17 09:32:04;;;;;;;36.40;25.83;;;;;;;;;;4790303;30;20031;-84
2021/09/17 09:34:56;;;;;;;37.10;27.80;;;;;;;;;;4773821;30;20449;-84
2021/09/17 09:37:25;;;;;;;35.28;26.38;;;;;;;;;;4791204;29;20035;-81
2021/09/17 09:39:57;;;;;;;36.05;25.40;;;;;;;;;;4794826;29;20109;-81
2021/09/17 09:42:41;;;;;;;32.60;25.67;;;;;;;;;;4789746;30;20027;-82
2021/09/17 09:45:09;;;;;;;36.08;26.13;;;;;;;;;;4798006;29;20043;-82
2021/09/17 09:47:36;;;;;;;36.28;25.77;;;;;;;;;;4777700;30;20407;-82
2021/09/17 09:50:14;;;;;;;36.40;26.25;;;;;;;;;;4793227;29;20039;-81
2021/09/17 09:52:39;;;;;;;35.92;25.45;;;;;;;;;;4790122;29;20038;-82
2021/09/17 09:55:07;;;;;;;33.15;25.67;;;;;;;;;;4757609;30;20485;-84
2021/09/17 09:57:33;;;;;;;37.03;25.50;;;;;;;;;;4774798;30;20059;-84
2021/09/17 10:00:03;;;;;;;33.28;23.73;;;;;;;;;;4773785;30;20031;-82
2021/09/17 10:02:31;;;;;;;31.42;22.77;;;;;;;;;;4788226;30;20430;-84
2021/09/17 10:04:58;;;;;;;33.38;23.73;;;;;;;;;;4786634;29;20037;-81
2021/09/17 10:07:27;;;;;;;34.75;24.88;;;;;;;;;;4781771;29;20129;-81
2021/09/17 10:09:53;;;;;;;34.97;24.40;;;;;;;;;;4789824;29;20039;-81
2021/09/17 10:12:19;;;;;;;31.30;23.50;;;;;;;;;;4773519;30;20042;-81
2021/09/17 10:14:47;;;;;;;35.85;24.48;;;;;;;;;;4757819;30;20400;-84
2021/09/17 10:17:25;;;;;;;37.38;23.98;;;;;;;;;;4791084;29;20441;-81
2021/09/17 10:19:52;;;;;;;31.77;23.90;;;;;;;;;;4783123;30;20027;-82
2021/09/17 10:22:39;;;;;;;37.38;24.95;;;;;;;;;;4787665;29;20518;-84
2021/09/17 10:25:17;;;;;;;36.88;25.48;;;;;;;;;;4785601;29;20121;-83
2021/09/17 10:28:05;;;;;;;38.28;24.20;;;;;;;;;;4787928;30;20069;-84
2021/09/17 10:30:33;;;;;;;39.28;25.90;;;;;;;;;;4787015;30;20059;-84
2021/09/17 10:32:59;;;;;;;40.75;26.45;;;;;;;;;;4793413;29;20035;-84
2021/09/17 10:35:29;;;;;;;42.22;26.20;;;;;;;;;;4775304;30;20042;-84
2021/09/17 10:38:01;;;;;;;38.55;25.83;;;;;;;;;;4775288;30;20441;-81
2021/09/17 10:40:45;;;;;;;41.92;27.50;;;;;;;;;;4788735;29;20027;-81
2021/09/17 10:43:10;;;;;;;38.25;26.90;;;;;;;;;;4771460;29;20034;-82
2021/09/17 10:45:47;;;;;;;39.15;26.15;;;;;;;;;;4792064;29;20057;-81
2021/09/17 10:48:15;;;;;;;38.45;26.90;;;;;;;;;;4772762;30;20035;-84
2021/09/17 10:50:57;;;;;;;40.38;26.05;;;;;;;;;;4772430;30;20046;-84
2021/09/17 10:53:44;;;;;;;41.00;26.85;;;;;;;;;;4787505;30;20407;-84
2021/09/17 10:56:15;;;;;;;37.47;26.50;;;;;;;;;;4787550;29;20062;-82
2021/09/17 10:58:45;;;;;;;39.50;26.00;;;;;;;;;;4788627;29;20037;-81
2021/09/17 11:01:16;;;;;;;35.25;24.13;;;;;;;;;;4792544;29;20039;-81
2021/09/17 11:03:42;;;;;;;34.63;23.27;;;;;;;;;;4788246;29;20039;-82
2021/09/17 11:06:23;;;;;;;31.25;22.30;;;;;;;;;;4773173;29;20385;-84
2021/09/17 11:09:02;;;;;;;29.13;21.10;;;;;;;;;;4786063;30;20040;-82
2021/09/17 11:11:41;;;;;;;27.50;19.90;;;;;;;;;;4769924;30;20392;-82
2021/09/17 11:14:30;;;;;;;25.70;17.73;;;;;;;;;;4775025;30;20038;-81
2021/09/17 11:16:56;;;;;;;21.83;15.30;;;;;;;;;;4787767;30;20432;-84
2021/09/17 11:19:21;;;;;;;21.60;14.80;;;;;;;;;;4769796;30;20042;-84
2021/09/17 11:21:50;;;;;;;19.38;14.25;;;;;;;;;;4763699;30;20035;-84
2021/09/17 11:24:25;;;;;;;16.65;12.38;;;;;;;;;;4787400;30;20039;-84
2021/09/17 11:26:52;;;;;;;18.65;13.00;;;;;;;;;;4783039;29;20185;-81
2021/09/17 11:29:21;;;;;;;18.17;12.27;;;;;;;;;;4773197;30;20077;-83
2021/09/17 11:32:05;;;;;;;17.33;12.07;;;;;;;;;;4785483;29;20043;-81
2021/09/17 11:34:34;;;;;;;16.85;11.63;;;;;;;;;;4773093;29;20061;-84
2021/09/17 11:37:02;;;;;;;19.23;13.95;;;;;;;;;;4785602;30;20043;-82
2021/09/17 11:39:33;;;;;;;20.58;15.27;;;;;;;;;;4786832;29;20100;-82
2021/09/17 11:42:01;;;;;;;23.63;16.20;;;;;;;;;;4789600;29;20111;-85
2021/09/17 11:44:31;;;;;;;16.92;12.65;;;;;;;;;;4775573;29;20066;-82
2021/09/17 11:46:58;;;;;;;16.17;12.05;;;;;;;;;;4771447;30;20060;-82
2021/09/17 11:49:28;;;;;;;18.13;12.77;;;;;;;;;;4778794;29;20085;-84
2021/09/17 11:52:02;;;;;;;17.15;13.38;;;;;;;;;;4769107;30;20059;-84
2021/09/17 11:54:29;;;;;;;14.90;9.82;;;;;;;;;;4765050;30;20122;-84
2021/09/17 11:57:12;;;;;;;16.65;11.07;;;;;;;;;;4788290;29;20062;-81
2021/09/17 11:59:43;;;;;;;16.08;11.38;;;;;;;;;;4772729;30;20100;-84
2021/09/17 12:02:26;;;;;;;15.48;10.63;;;;;;;;;;4785259;30;20059;-81
2021/09/17 12:04:57;;;;;;;13.60;10.98;;;;;;;;;;4782713;30;20042;-82
2021/09/17 12:07:24;;;;;;;16.63;11.25;;;;;;;;;;4774524;30;20519;-81
2021/09/17 12:09:50;;;;;;;15.55;10.90;;;;;;;;;;4771972;30;20065;-82
2021/09/17 12:12:16;;;;;;;16.55;11.88;;;;;;;;;;4774621;29;20039;-81
2021/09/17 12:14:50;;;;;;;17.10;12.02;;;;;;;;;;4787550;30;20036;-85
2021/09/17 12:17:16;;;;;;;16.67;11.40;;;;;;;;;;4791631;29;20042;-84
2021/09/17 12:20:08;;;;;;;16.10;11.40;;;;;;;;;;4779829;29;20031;-82
2021/09/17 12:22:39;;;;;;;18.30;11.10;;;;;;;;;;4785743;30;20031;-82
2021/09/17 12:25:14;;;;;;;16.05;10.77;;;;;;;;;;4792683;29;20180;-82
2021/09/17 12:27:42;;;;;;;15.20;11.50;;;;;;;;;;4785441;29;20099;-82
2021/09/17 12:30:19;;;;;;;16.38;11.25;;;;;;;;;;4784503;29;20784;-82
2021/09/17 12:33:02;;;;;;;17.30;11.70;;;;;;;;;;4783389;29;20125;-81
2021/09/17 12:35:29;;;;;;;18.10;11.13;;;;;;;;;;4767385;30;20586;-82
2021/09/17 12:37:56;;;;;;;17.27;11.35;;;;;;;;;;4766936;29;20480;-86
2021/09/17 12:40:26;;;;;;;19.73;11.75;;;;;;;;;;4786273;30;20059;-86
2021/09/17 12:43:00;;;;;;;17.55;11.75;;;;;;;;;;4792287;29;20042;-82
2021/09/17 12:45:28;;;;;;;17.25;11.88;;;;;;;;;;4768764;30;20035;-85
2021/09/17 12:47:57;;;;;;;17.58;11.57;;;;;;;;;;4779267;29;20070;-82
2021/09/17 12:50:37;;;;;;;17.98;12.38;;;;;;;;;;4782142;29;20040;-85
2021/09/17 12:53:12;;;;;;;17.58;12.18;;;;;;;;;;4770990;30;20032;-85
2021/09/17 12:55:40;;;;;;;18.15;10.88;;;;;;;;;;4781448;30;20479;-81
2021/09/17 12:58:24;;;;;;;19.15;11.48;;;;;;;;;;4768538;30;20046;-81
2021/09/17 13:00:51;;;;;;;17.67;12.07;;;;;;;;;;4747305;30;20111;-85
2021/09/17 13:03:19;;;;;;;18.13;11.02;;;;;;;;;;4771982;30;20041;-81
2021/09/17 13:05:50;;;;;;;16.35;11.23;;;;;;;;;;4786490;30;20039;-85
2021/09/17 13:08:17;;;;;;;16.23;10.20;;;;;;;;;;4776729;29;20039;-81
2021/09/17 13:10:43;;;;;;;19.90;11.48;;;;;;;;;;4774120;30;20047;-85
2021/09/17 13:13:09;;;;;;;15.82;10.00;;;;;;;;;;4786111;29;20067;-81
2021/09/17 13:15:36;;;;;;;14.05;8.75;;;;;;;;;;4768969;30;20046;-84
2021/09/17 13:18:03;;;;;;;12.55;9.25;;;;;;;;;;4787463;29;20027;-81
2021/09/17 13:20:29;;;;;;;14.60;9.50;;;;;;;;;;4770744;30;20043;-81
2021/09/17 13:22:56;;;;;;;13.82;8.40;;;;;;;;;;4770722;30;20465;-85
2021/09/17 13:25:22;;;;;;;12.30;7.70;;;;;;;;;;4788130;29;20022;-82
2021/09/17 13:27:50;;;;;;;12.13;7.32;;;;;;;;;;4765108;30;20044;-85
2021/09/17 13:30:19;;;;;;;11.43;7.53;;;;;;;;;;4786446;29;20055;-82
2021/09/17 13:32:45;;;;;;;11.05;6.70;;;;;;;;;;4777466;29;20035;-85
2021/09/17 13:35:15;;;;;;;9.65;7.00;;;;;;;;;;4758814;30;20035;-81
2021/09/17 13:37:41;;;;;;;9.45;6.22;;;;;;;;;;4787949;29;20039;-85
2021/09/17 13:40:12;;;;;;;9.02;6.07;;;;;;;;;;4783895;29;20392;-82
2021/09/17 13:42:41;;;;;;;10.48;6.45;;;;;;;;;;4770218;30;20058;-81
2021/09/17 13:45:10;;;;;;;8.30;5.75;;;;;;;;;;4785104;29;20031;-82
2021/09/17 13:47:36;;;;;;;15.57;6.15;;;;;;;;;;4780415;29;20457;-83
2021/09/17 13:50:03;;;;;;;9.50;6.07;;;;;;;;;;4781145;29;20031;-82
2021/09/17 13:52:29;;;;;;;9.02;5.95;;;;;;;;;;4773050;30;20096;-82
2021/09/17 13:54:54;;;;;;;9.98;6.93;;;;;;;;;;4769225;30;20035;-82
2021/09/17 13:57:20;;;;;;;11.52;7.47;;;;;;;;;;4768244;30;20114;-81
2021/09/17 13:59:47;;;;;;;9.18;6.15;;;;;;;;;;4755323;30;20035;-82
2021/09/17 14:02:13;;;;;;;9.52;5.97;;;;;;;;;;4783298;30;20039;-81
2021/09/17 14:04:38;;;;;;;9.40;6.47;;;;;;;;;;4788358;29;20031;-84
2021/09/17 14:07:04;;;;;;;11.70;7.60;;;;;;;;;;4772027;30;20043;-85
2021/09/17 14:09:31;;;;;;;11.35;7.65;;;;;;;;;;4783114;29;20126;-82
2021/09/17 14:11:57;;;;;;;8.32;6.38;;;;;;;;;;4783791;29;20035;-85
2021/09/17 14:14:22;;;;;;;10.10;6.03;;;;;;;;;;4769190;29;20403;-84
2021/09/17 14:16:48;;;;;;;8.95;6.30;;;;;;;;;;4754276;29;20128;-84
2021/09/17 14:19:15;;;;;;;9.23;6.30;;;;;;;;;;4786785;29;20026;-85
2021/09/17 14:21:43;;;;;;;8.60;6.72;;;;;;;;;;4783664;30;20071;-84